Terminal Aerodrome Forecast
Issued by NWS Blacksburg, VA

Home | Current Version | Previous Version | Text Only | Print | Product List | Glossary On
Versions: 1 2 3 4 5 6 7 8 9 10 11 12 13 14 15 16 17 18 19 20 21 22 23 24 25 26 27
437
FTUS41 KRNK 231731
TAFDAN
TAF
KDAN 231731Z 2318/2418 05007KT 6SM -RA OVC010
      TEMPO 2318/2321 4SM -SHRA OVC008
     FM232100 05008KT 3SM RA BR OVC008
     FM241200 04010KT 1SM SHRA BR OVC003
     FM241600 07012G25KT 4SM -SHRA OVC010=

USA.gov is the U.S. government's official web portal to all federal, state and local government web resources and services.